Time;durP1;ratioP1;P1;durP2;ratioP2;P2;SDS_P1;SDS_P2;PMS_P1;PMS_P2;Temp;Humidity;BMP_temperature;BMP_pressure;BME280_temperature;BME280_humidity;BME280_pressure;Samples;Min_cycle;Max_cycle;Signal;HPM_P1;HPM_P2
2021/11/21 00:00:23;;;;;;;2.63;1.80;;;;;;;23.20;40.41;95221.41;4968868;28;20026;-62
2021/11/21 00:02:48;;;;;;;2.50;1.98;;;;;;;23.18;40.07;95231.31;4972029;28;20057;-62
2021/11/21 00:05:14;;;;;;;3.20;2.00;;;;;;;23.13;40.35;95227.38;4986356;28;20034;-62
2021/11/21 00:07:40;;;;;;;2.92;2.25;;;;;;;23.10;40.58;95222.94;4992802;28;20056;-62
2021/11/21 00:10:06;;;;;;;2.72;1.90;;;;;;;23.09;40.19;95221.47;4990677;28;20844;-62
2021/11/21 00:12:32;;;;;;;2.40;1.80;;;;;;;23.08;40.53;95225.44;4991397;28;20523;-62
2021/11/21 00:14:57;;;;;;;2.53;1.70;;;;;;;23.03;40.44;95223.47;4991560;28;20033;-62
2021/11/21 00:17:23;;;;;;;2.38;1.75;;;;;;;23.02;40.45;95232.88;4991394;28;20104;-62
2021/11/21 00:19:48;;;;;;;2.58;1.70;;;;;;;23.01;40.48;95234.13;4998297;28;20018;-61
2021/11/21 00:22:15;;;;;;;2.63;1.77;;;;;;;22.98;40.34;95221.50;4999455;28;20037;-63
2021/11/21 00:24:41;;;;;;;2.90;1.95;;;;;;;22.95;40.41;95219.78;4994010;28;20416;-61
2021/11/21 00:27:06;;;;;;;2.90;2.00;;;;;;;22.94;40.02;95226.50;4988504;28;20125;-62
2021/11/21 00:29:32;;;;;;;3.50;2.10;;;;;;;22.92;40.75;95223.47;4994502;28;20081;-61
2021/11/21 00:31:57;;;;;;;2.83;2.00;;;;;;;22.91;40.66;95224.75;4988112;28;20485;-62
2021/11/21 00:34:23;;;;;;;3.20;2.17;;;;;;;22.88;40.70;95217.56;4993837;28;20527;-62
2021/11/21 00:36:48;;;;;;;2.50;2.00;;;;;;;22.87;40.58;95217.31;4970774;28;20041;-61
2021/11/21 00:39:14;;;;;;;3.30;2.25;;;;;;;22.85;40.63;95211.63;4994193;28;20026;-62
2021/11/21 00:41:39;;;;;;;2.97;2.17;;;;;;;22.84;40.60;95207.41;4970479;28;20460;-63
2021/11/21 00:44:07;;;;;;;2.85;2.17;;;;;;;22.81;40.52;95209.19;4987433;28;20065;-61
2021/11/21 00:46:32;;;;;;;2.75;1.95;;;;;;;22.78;40.86;95202.00;5002916;28;20041;-61
2021/11/21 00:48:58;;;;;;;3.08;2.28;;;;;;;22.79;40.75;95197.31;4995375;28;20034;-63
2021/11/21 00:51:24;;;;;;;3.33;2.30;;;;;;;22.76;40.50;95204.47;4986368;28;20057;-63
2021/11/21 00:53:54;;;;;;;3.08;2.22;;;;;;;22.76;40.90;95192.84;4987005;28;20038;-63
2021/11/21 00:56:19;;;;;;;;;;;;;;;22.71;41.03;95201.78;5004802;28;20583;-63
2021/11/21 00:58:45;;;;;;;3.35;2.33;;;;;;;22.71;40.83;95199.06;4996100;28;20000;-63
2021/11/21 01:03:48;;;;;;;2.72;2.30;;;;;;;22.66;40.88;95188.91;4959664;28;20100;-69
2021/11/21 01:06:14;;;;;;;3.35;2.30;;;;;;;22.68;40.81;95186.47;5025076;28;20044;-70
2021/11/21 01:08:39;;;;;;;3.45;2.40;;;;;;;22.66;40.65;95194.38;5025982;28;20051;-69
2021/11/21 01:11:05;;;;;;;3.35;2.40;;;;;;;22.65;40.77;95187.44;5024660;28;20092;-70
2021/11/21 01:13:31;;;;;;;3.00;2.30;;;;;;;22.63;40.78;95184.47;5024880;28;20064;-70
2021/11/21 01:15:56;;;;;;;3.03;2.08;;;;;;;22.62;40.97;95185.72;5024847;28;20402;-70
2021/11/21 01:18:22;;;;;;;3.30;2.25;;;;;;;22.60;41.13;95180.03;5024881;28;20056;-70
2021/11/21 01:20:47;;;;;;;3.33;2.22;;;;;;;22.58;40.96;95177.06;5025110;28;20022;-70
2021/11/21 01:23:13;;;;;;;3.47;2.40;;;;;;;22.58;40.87;95177.06;5024018;28;20030;-70
2021/11/21 01:25:40;;;;;;;3.22;2.30;;;;;;;22.57;40.88;95172.88;5024399;28;20029;-70
2021/11/21 01:28:06;;;;;;;4.25;2.45;;;;;;;22.55;41.00;95175.34;5024470;28;20484;-69
2021/11/21 01:30:31;;;;;;;3.38;2.45;;;;;;;22.55;41.17;95167.19;5024625;28;20033;-69
2021/11/21 01:32:57;;;;;;;4.28;2.72;;;;;;;22.52;41.11;95165.47;5024703;28;20030;-70
2021/11/21 01:35:23;;;;;;;3.22;2.50;;;;;;;22.53;41.06;95164.22;5024170;28;20112;-69
2021/11/21 01:37:48;;;;;;;3.70;2.30;;;;;;;22.48;41.14;95151.38;5023566;28;20396;-69
2021/11/21 01:40:15;;;;;;;3.40;2.63;;;;;;;22.49;41.06;95158.31;5024363;28;20018;-69
2021/11/21 01:42:40;;;;;;;3.63;2.45;;;;;;;22.48;41.13;95156.81;5024459;28;20649;-69
2021/11/21 01:45:06;;;;;;;3.70;2.40;;;;;;;22.46;40.97;95149.16;5024482;28;20033;-70
2021/11/21 01:47:31;;;;;;;4.15;2.45;;;;;;;22.46;41.04;95153.84;5024318;28;20443;-69
2021/11/21 01:49:57;;;;;;;3.45;2.55;;;;;;;22.44;41.25;95148.91;5022431;28;20029;-70
2021/11/21 01:52:23;;;;;;;3.38;2.35;;;;;;;22.42;41.26;95142.50;5024350;28;20021;-70
2021/11/21 01:54:48;;;;;;;3.95;2.80;;;;;;;22.43;41.32;95143.97;5024230;28;20087;-70
2021/11/21 01:57:14;;;;;;;5.30;2.80;;;;;;;22.42;41.11;95147.94;5024318;28;20029;-70
2021/11/21 01:59:39;;;;;;;3.30;2.75;;;;;;;22.40;40.99;95134.09;5024177;28;20487;-69
2021/11/21 02:02:05;;;;;;;3.53;2.70;;;;;;;22.38;40.97;95142.00;5024156;28;20041;-69
2021/11/21 02:04:30;;;;;;;4.38;2.80;;;;;;;22.39;41.00;95138.06;5023862;28;20053;-70
2021/11/21 02:06:56;;;;;;;4.55;2.75;;;;;;;22.37;41.10;95135.09;5023879;28;20036;-69
2021/11/21 02:09:21;;;;;;;3.97;2.70;;;;;;;22.37;41.13;95135.09;5024294;28;20076;-70
2021/11/21 02:11:47;;;;;;;3.85;2.70;;;;;;;22.35;41.07;95126.69;5024258;28;20029;-70
2021/11/21 02:14:12;;;;;;;3.40;2.33;;;;;;;22.33;41.31;95129.19;5024289;28;20419;-70
2021/11/21 02:16:38;;;;;;;4.18;2.92;;;;;;;22.33;41.23;95131.91;5022617;28;20083;-70
2021/11/21 02:19:03;;;;;;;4.18;2.60;;;;;;;22.34;41.14;95135.34;5022446;28;20021;-70
2021/11/21 02:21:29;;;;;;;4.07;2.78;;;;;;;22.31;41.13;95126.19;5023922;28;20021;-70
2021/11/21 02:23:54;;;;;;;3.80;2.90;;;;;;;22.31;41.11;95142.53;5025823;28;20462;-69
2021/11/21 02:26:20;;;;;;;3.85;2.80;;;;;;;22.30;41.03;95141.06;5010348;28;20029;-69
2021/11/21 02:28:46;;;;;;;3.72;2.70;;;;;;;22.30;41.06;95146.50;5026557;28;20404;-70
2021/11/21 02:31:12;;;;;;;4.22;2.85;;;;;;;22.30;41.10;95140.28;5027753;28;20039;-69
2021/11/21 02:33:38;;;;;;;3.88;2.85;;;;;;;22.27;41.04;95133.91;5027415;28;20033;-70
2021/11/21 02:36:05;;;;;;;5.05;3.30;;;;;;;22.27;41.18;95135.84;5027696;28;20025;-70
2021/11/21 02:38:31;;;;;;;4.30;2.80;;;;;;;22.25;41.21;95133.63;5026211;28;20083;-69
2021/11/21 02:40:57;;;;;;;4.95;3.35;;;;;;;22.25;41.20;95133.63;5027479;28;20018;-70
2021/11/21 02:43:22;;;;;;;3.72;2.72;;;;;;;22.25;41.36;95124.75;5026361;28;20029;-70
2021/11/21 02:45:49;;;;;;;5.05;3.17;;;;;;;22.24;41.26;95120.53;5027366;28;20020;-70
2021/11/21 02:48:18;;;;;;;4.50;2.85;;;;;;;22.22;41.31;95126.47;5027578;28;20025;-69
2021/11/21 02:50:44;;;;;;;4.35;2.78;;;;;;;22.20;41.14;95120.75;5026769;28;20033;-69
2021/11/21 02:53:10;;;;;;;4.80;3.10;;;;;;;22.18;41.39;95115.09;5027252;28;20037;-69
2021/11/21 02:55:35;;;;;;;4.82;3.20;;;;;;;22.17;41.27;95116.31;5025818;28;20037;-70
2021/11/21 02:58:01;;;;;;;3.95;2.90;;;;;;;22.19;41.31;95119.28;5026005;28;20588;-69
2021/11/21 03:00:27;;;;;;;4.43;3.40;;;;;;;22.17;41.26;95121.75;5025710;28;20549;-68
2021/11/21 03:02:52;;;;;;;4.70;2.92;;;;;;;22.17;41.20;95121.75;5027052;28;20057;-70
2021/11/21 03:05:19;;;;;;;4.53;3.28;;;;;;;22.17;41.26;95112.88;5027335;28;20076;-70
2021/11/21 03:07:45;;;;;;;4.60;2.88;;;;;;;22.15;41.24;95113.38;5026830;28;20064;-70
2021/11/21 03:10:12;;;;;;;3.90;3.13;;;;;;;22.14;41.26;95122.03;5026985;28;20033;-70
2021/11/21 03:12:37;;;;;;;4.25;2.88;;;;;;;22.12;41.23;95119.81;5027040;28;20068;-70
2021/11/21 03:15:03;;;;;;;4.88;3.33;;;;;;;22.12;41.29;95125.25;5027080;28;20099;-70
2021/11/21 03:17:28;;;;;;;3.70;3.00;;;;;;;22.10;41.27;95111.38;5026741;28;20064;-70
2021/11/21 03:19:54;;;;;;;4.43;2.90;;;;;;;22.09;41.07;95109.91;5026403;28;20491;-70
2021/11/21 03:22:19;;;;;;;4.30;3.05;;;;;;;22.10;41.57;95114.09;5026791;28;20056;-70
2021/11/21 03:24:45;;;;;;;5.03;3.03;;;;;;;22.09;41.38;95120.78;5026868;28;20033;-70
2021/11/21 03:27:11;;;;;;;4.38;3.22;;;;;;;22.09;41.32;95126.25;5026779;28;20087;-70
2021/11/21 03:29:36;;;;;;;5.28;3.40;;;;;;;22.08;41.38;95116.59;5025357;28;20459;-70
2021/11/21 03:32:02;;;;;;;5.20;3.20;;;;;;;22.07;41.31;95125.97;5027100;28;20025;-70
2021/11/21 03:34:29;;;;;;;4.38;3.33;;;;;;;22.06;41.16;95121.78;5026205;28;20052;-70
2021/11/21 03:36:54;;;;;;;5.13;3.33;;;;;;;22.05;41.36;95120.31;5027221;28;20029;-69
2021/11/21 03:39:20;;;;;;;4.60;2.97;;;;;;;22.06;41.26;95121.03;5027067;28;20021;-69
2021/11/21 03:41:45;;;;;;;4.75;3.40;;;;;;;22.03;41.79;95122.78;5026300;28;20018;-69
2021/11/21 03:44:11;;;;;;;4.82;3.22;;;;;;;22.02;41.24;95121.28;5026474;28;20040;-69
2021/11/21 03:46:37;;;;;;;4.60;3.22;;;;;;;22.02;41.33;95121.28;5026297;28;20025;-69
2021/11/21 03:49:02;;;;;;;3.50;2.83;;;;;;;22.02;41.30;95110.41;5025939;28;20044;-70
2021/11/21 03:51:28;;;;;;;4.85;3.45;;;;;;;22.01;41.35;95119.81;5025899;28;20026;-69
2021/11/21 03:53:53;;;;;;;4.15;3.20;;;;;;;22.00;41.55;95123.78;5026096;28;20033;-69
2021/11/21 03:56:19;;;;;;;4.10;3.22;;;;;;;22.00;41.38;95118.34;5024798;28;20029;-69
2021/11/21 03:58:44;;;;;;;4.97;3.30;;;;;;;21.99;41.37;95122.28;5026102;28;20026;-69
2021/11/21 04:01:10;;;;;;;4.82;3.17;;;;;;;21.99;41.28;95122.28;5025665;28;20049;-70
2021/11/21 04:03:35;;;;;;;5.30;3.40;;;;;;;21.98;41.29;95120.81;5024506;28;20076;-70
2021/11/21 04:06:01;;;;;;;4.35;3.03;;;;;;;21.97;41.16;95119.34;5025882;28;20026;-70
2021/11/21 04:08:26;;;;;;;5.20;3.45;;;;;;;21.96;41.40;95126.00;5025787;28;20037;-69
2021/11/21 04:10:52;;;;;;;6.10;4.18;;;;;;;21.96;41.22;95122.56;5025651;28;20032;-69
2021/11/21 04:13:17;;;;;;;5.28;3.40;;;;;;;21.96;41.31;95123.28;5026189;28;20032;-69
2021/11/21 04:15:43;;;;;;;5.28;3.75;;;;;;;21.95;41.33;95129.22;5025937;28;20404;-70
2021/11/21 04:18:09;;;;;;;4.18;3.47;;;;;;;21.93;41.26;95135.16;5024248;28;20407;-70
2021/11/21 04:20:35;;;;;;;4.93;3.20;;;;;;;21.94;41.34;95131.22;5024175;28;20032;-70
2021/11/21 04:23:00;;;;;;;4.43;3.05;;;;;;;21.94;41.44;95128.50;5025375;28;20363;-69
2021/11/21 04:25:26;;;;;;;4.90;3.53;;;;;;;21.93;41.59;95124.28;5007860;28;20017;-69
2021/11/21 04:27:51;;;;;;;4.75;3.50;;;;;;;21.92;41.23;95130.94;5025523;28;20033;-69
2021/11/21 04:30:17;;;;;;;4.63;3.53;;;;;;;21.92;41.33;95127.50;5025475;28;20199;-71
2021/11/21 04:32:43;;;;;;;5.45;3.38;;;;;;;21.91;41.29;95125.28;5024956;28;20082;-69
2021/11/21 04:35:14;;;;;;;4.70;3.40;;;;;;;21.92;41.31;95121.31;5025252;28;20112;-68
2021/11/21 04:37:40;;;;;;;4.95;3.65;;;;;;;21.89;41.36;95125.78;5025266;28;20029;-69
2021/11/21 04:40:06;;;;;;;5.15;3.58;;;;;;;21.91;41.29;95126.00;5025117;28;20079;-69
2021/11/21 04:42:32;;;;;;;5.93;3.72;;;;;;;21.90;41.42;95129.22;5023754;28;20068;-69
2021/11/21 04:44:57;;;;;;;4.53;3.45;;;;;;;21.89;41.36;95127.75;5025435;28;20565;-67
2021/11/21 04:47:23;;;;;;;5.38;3.53;;;;;;;21.88;41.30;95126.25;5024111;28;20057;-70
2021/11/21 04:49:48;;;;;;;5.03;3.45;;;;;;;21.88;41.36;95127.00;5024807;28;20029;-70
2021/11/21 04:52:14;;;;;;;4.28;3.63;;;;;;;21.86;41.39;95123.31;5025127;28;20028;-70
2021/11/21 04:54:40;;;;;;;5.07;3.63;;;;;;;21.87;41.33;95119.34;5023813;28;20029;-69
2021/11/21 04:57:05;;;;;;;6.38;4.00;;;;;;;21.86;41.32;95117.88;5025043;28;20029;-69
2021/11/21 04:59:31;;;;;;;4.90;3.45;;;;;;;21.85;41.32;95113.66;5025089;28;20021;-69
2021/11/21 05:01:57;;;;;;;5.22;3.40;;;;;;;21.80;41.25;95108.97;5023769;28;20538;-69
2021/11/21 05:04:22;;;;;;;4.53;3.47;;;;;;;21.83;41.44;95114.16;5025287;28;20053;-69
2021/11/21 05:06:48;;;;;;;4.85;3.45;;;;;;;21.83;41.42;95114.16;5026794;28;20065;-68
2021/11/21 05:09:14;;;;;;;5.72;3.88;;;;;;;21.82;41.27;95117.38;5026786;28;20083;-69
2021/11/21 05:11:39;;;;;;;4.20;3.33;;;;;;;21.83;41.31;95118.88;5026101;28;20487;-69
2021/11/21 05:14:04;;;;;;;4.72;3.63;;;;;;;21.82;41.32;95117.38;5025162;28;20029;-66
2021/11/21 05:16:31;;;;;;;5.05;3.75;;;;;;;21.82;41.10;95122.81;5025161;28;20044;-69
2021/11/21 05:18:57;;;;;;;5.35;3.42;;;;;;;21.79;41.26;95112.94;5025279;28;20060;-69
2021/11/21 05:21:22;;;;;;;4.55;3.22;;;;;;;21.78;41.14;95111.44;5023706;28;20033;-69
2021/11/21 05:23:48;;;;;;;4.70;3.42;;;;;;;21.78;41.20;95111.44;5024635;28;20500;-69
2021/11/21 05:26:13;;;;;;;5.03;3.55;;;;;;;21.76;41.30;95108.47;5024460;28;20029;-70
2021/11/21 05:28:38;;;;;;;4.78;3.45;;;;;;;21.77;41.37;95112.69;5023380;28;20026;-70
2021/11/21 05:31:04;;;;;;;5.40;3.63;;;;;;;21.77;41.27;95116.13;5024120;28;20026;-70
2021/11/21 05:33:29;;;;;;;4.70;3.70;;;;;;;21.77;41.54;95116.13;5024729;28;20017;-70
2021/11/21 05:35:55;;;;;;;5.70;4.00;;;;;;;21.76;41.11;95109.22;5026324;28;20021;-69
2021/11/21 05:38:20;;;;;;;5.22;3.45;;;;;;;21.77;41.31;95109.97;5038578;28;20024;-69
2021/11/21 05:40:46;;;;;;;5.20;3.30;;;;;;;21.78;41.46;95111.44;5042548;28;20021;-69
2021/11/21 05:43:11;;;;;;;4.95;3.55;;;;;;;21.80;41.30;95100.81;5035559;28;20026;-69
2021/11/21 05:45:37;;;;;;;4.78;3.35;;;;;;;21.90;41.83;95112.91;5024469;28;20021;-75
2021/11/21 05:48:03;;;;;;;4.65;3.47;;;;;;;21.92;41.21;95105.75;5034959;28;20040;-67
2021/11/21 05:50:28;;;;;;;7.05;3.50;;;;;;;21.96;41.41;95114.41;5033878;28;20021;-66
2021/11/21 05:52:54;;;;;;;5.35;3.33;;;;;;;22.00;41.49;95115.63;5034717;28;20021;-72
2021/11/21 05:55:19;;;;;;;6.53;3.53;;;;;;;22.03;41.35;95117.34;5042734;28;20021;-71
2021/11/21 05:57:45;;;;;;;5.20;3.45;;;;;;;22.07;41.34;95111.66;5039066;28;20021;-71
2021/11/21 06:00:13;;;;;;;4.53;3.58;;;;;;;22.13;41.01;95115.81;5025954;28;20076;-69
2021/11/21 06:02:39;;;;;;;4.88;3.50;;;;;;;22.18;40.93;95109.66;4990620;28;20191;-69
2021/11/21 06:05:05;;;;;;;4.82;3.70;;;;;;;22.28;40.88;95110.88;5027644;28;20033;-70
2021/11/21 06:07:30;;;;;;;5.10;3.50;;;;;;;22.37;40.56;95107.88;5026401;28;20022;-69
2021/11/21 06:09:56;;;;;;;4.45;3.28;;;;;;;22.46;40.58;95115.75;5026618;28;20028;-69
2021/11/21 06:12:21;;;;;;;5.68;3.58;;;;;;;22.55;40.27;95118.19;5027703;28;20036;-67
2021/11/21 06:14:47;;;;;;;5.40;4.07;;;;;;;22.67;40.32;95119.63;5032833;28;20199;-67
2021/11/21 06:17:12;;;;;;;5.38;4.00;;;;;;;22.77;39.98;95112.66;5047521;28;20032;-71
2021/11/21 06:19:39;;;;;;;4.65;3.78;;;;;;;22.88;39.89;95118.06;5031284;28;20609;-70
2021/11/21 06:22:04;;;;;;;6.50;3.97;;;;;;;23.00;39.73;95109.34;5040224;28;20025;-71
2021/11/21 06:24:30;;;;;;;5.18;3.83;;;;;;;23.08;39.21;95111.03;5035223;28;20090;-71
2021/11/21 06:26:56;;;;;;;5.38;3.83;;;;;;;23.20;39.38;95111.69;5030186;28;20439;-70
2021/11/21 06:29:23;;;;;;;5.00;3.38;;;;;;;23.29;39.21;95120.31;5029362;28;20025;-71
2021/11/21 06:31:49;;;;;;;5.00;3.65;;;;;;;23.52;38.65;95124.34;5025688;28;20021;-66
2021/11/21 06:34:15;;;;;;;5.78;3.65;;;;;;;23.62;38.55;95120.78;5026882;28;20040;-71
2021/11/21 06:36:41;;;;;;;5.45;3.60;;;;;;;23.65;38.52;95113.63;5038748;28;20514;-69
2021/11/21 06:39:06;;;;;;;5.40;3.72;;;;;;;23.73;37.80;95109.09;5047258;28;20047;-69
2021/11/21 06:41:33;;;;;;;5.88;3.85;;;;;;;23.82;38.25;95106.75;5047169;28;20029;-70
2021/11/21 06:43:58;;;;;;;5.57;3.97;;;;;;;23.88;38.08;95110.94;5032284;28;20400;-67
2021/11/21 06:46:24;;;;;;;5.50;3.88;;;;;;;23.96;37.82;95114.56;5037794;28;20028;-69
2021/11/21 06:48:49;;;;;;;5.47;3.63;;;;;;;24.01;37.53;95108.31;5034621;28;20487;-71
2021/11/21 06:51:15;;;;;;;4.68;3.38;;;;;;;24.10;37.60;95107.97;5024353;28;20450;-67
2021/11/21 06:53:42;;;;;;;7.82;3.58;;;;;;;24.15;37.25;95107.19;5025469;28;20013;-67
2021/11/21 06:56:08;;;;;;;4.30;3.70;;;;;;;24.22;37.55;95101.16;5025060;28;20029;-68
2021/11/21 06:58:33;;;;;;;5.95;3.63;;;;;;;24.26;37.54;95096.16;5029366;28;20170;-68
2021/11/21 07:00:59;;;;;;;5.05;3.83;;;;;;;24.31;37.43;95092.63;5037798;28;20025;-66
2021/11/21 07:03:24;;;;;;;5.18;4.00;;;;;;;24.40;37.17;95095.03;5034199;28;20523;-69
2021/11/21 07:05:50;;;;;;;4.63;3.65;;;;;;;24.45;36.82;95086.03;5026357;28;20533;-69
2021/11/21 07:08:16;;;;;;;5.28;3.83;;;;;;;24.49;36.73;95086.50;5041909;28;20029;-69
2021/11/21 07:10:42;;;;;;;5.55;3.70;;;;;;;24.57;36.74;95087.38;5024727;28;20032;-69
2021/11/21 07:13:07;;;;;;;5.32;3.90;;;;;;;24.59;36.52;95080.16;5026733;28;20029;-68
2021/11/21 07:15:33;;;;;;;6.10;3.78;;;;;;;24.65;36.38;95082.81;5030380;28;20040;-68
2021/11/21 07:17:58;;;;;;;7.90;3.63;;;;;;;24.69;36.35;95088.72;5045618;28;20025;-71
2021/11/21 07:20:24;;;;;;;4.95;3.63;;;;;;;24.71;36.46;95099.84;5044034;28;20037;-69
2021/11/21 07:22:51;;;;;;;5.30;4.00;;;;;;;24.76;36.44;95093.59;5030795;28;20091;-69
2021/11/21 07:25:18;;;;;;;4.82;3.65;;;;;;;24.80;36.35;95085.84;5024731;28;20095;-68
2021/11/21 07:27:43;;;;;;;5.50;4.25;;;;;;;24.81;36.16;95079.13;5026895;28;20172;-67
2021/11/21 07:30:14;;;;;;;5.97;4.50;;;;;;;24.86;36.23;95077.06;5038119;28;20032;-67
2021/11/21 07:32:40;;;;;;;5.68;3.88;;;;;;;24.90;36.26;95072.03;5044323;28;20414;-70
2021/11/21 07:35:06;;;;;;;5.28;3.85;;;;;;;24.96;35.97;95069.97;5030930;28;20463;-69
2021/11/21 07:37:31;;;;;;;5.30;3.83;;;;;;;24.97;35.97;95071.44;5045690;28;20021;-70
2021/11/21 07:39:57;;;;;;;6.32;4.18;;;;;;;25.04;35.75;95076.34;5041580;28;20487;-70
2021/11/21 07:42:22;;;;;;;5.53;3.67;;;;;;;25.02;36.28;95073.41;5036461;28;20030;-68
2021/11/21 07:44:48;;;;;;;6.38;4.40;;;;;;;25.05;35.86;95072.38;5026037;28;20021;-68
2021/11/21 07:47:14;;;;;;;6.13;3.90;;;;;;;25.06;35.86;95079.28;5027070;28;20029;-69
2021/11/21 07:49:39;;;;;;;6.18;4.50;;;;;;;25.08;35.71;95076.78;5026280;28;20488;-71
2021/11/21 07:52:05;;;;;;;5.40;4.05;;;;;;;25.12;35.81;95076.47;5026209;28;20109;-69
2021/11/21 07:54:32;;;;;;;5.47;3.75;;;;;;;25.12;35.66;95074.47;5026771;28;20781;-68
2021/11/21 07:56:58;;;;;;;6.20;4.30;;;;;;;25.13;35.85;95067.75;5029340;28;20033;-68
2021/11/21 07:59:23;;;;;;;5.95;4.18;;;;;;;25.15;35.77;95070.72;5025427;28;20488;-69
2021/11/21 08:01:49;;;;;;;5.72;3.75;;;;;;;25.20;35.52;95071.88;5025032;28;20720;-68
2021/11/21 08:04:15;;;;;;;6.32;4.00;;;;;;;25.23;35.51;95071.59;5025623;28;20037;-66
2021/11/21 08:06:40;;;;;;;5.15;4.05;;;;;;;25.25;35.43;95074.53;5039190;28;20585;-71
2021/11/21 08:09:06;;;;;;;5.57;4.10;;;;;;;25.29;35.67;95075.00;5044425;28;20049;-71
2021/11/21 08:11:31;;;;;;;5.43;4.28;;;;;;;25.29;35.43;95075.00;5044638;28;20067;-71
2021/11/21 08:13:57;;;;;;;5.88;4.15;;;;;;;25.30;35.65;95070.97;5044513;28;20491;-70
2021/11/21 08:16:22;;;;;;;5.95;4.20;;;;;;;25.34;35.66;95065.97;5038597;28;20507;-69
2021/11/21 08:18:48;;;;;;;5.85;4.10;;;;;;;25.38;35.29;95069.09;5028505;28;20021;-69
2021/11/21 08:21:13;;;;;;;10.38;7.68;;;;;;;25.21;32.85;95063.16;5027394;28;20028;-72
2021/11/21 08:23:39;;;;;;;11.23;7.00;;;;;;;25.12;33.46;95077.22;5044025;28;20040;-73
2021/11/21 08:26:05;;;;;;;8.15;5.55;;;;;;;25.20;34.63;95072.63;5044374;28;20071;-71
2021/11/21 08:28:31;;;;;;;7.40;4.80;;;;;;;25.30;35.26;95070.97;5045759;28;20091;-71
2021/11/21 08:30:56;;;;;;;6.78;4.38;;;;;;;25.37;35.03;95070.38;5045288;28;20025;-69
2021/11/21 08:33:22;;;;;;;8.05;4.55;;;;;;;25.39;34.78;95073.31;5025348;28;20612;-72
2021/11/21 08:35:47;;;;;;;7.13;4.40;;;;;;;25.38;35.51;95077.31;5024671;28;20029;-71
2021/11/21 08:38:13;;;;;;;8.05;4.57;;;;;;;25.45;35.00;95065.78;5024890;28;20036;-71
2021/11/21 08:40:38;;;;;;;6.80;4.35;;;;;;;25.47;35.17;95071.44;5024835;28;20021;-70
2021/11/21 08:43:04;;;;;;;6.57;4.43;;;;;;;25.49;35.86;95060.75;5025383;28;20210;-70
2021/11/21 08:45:32;;;;;;;7.07;4.55;;;;;;;25.53;35.68;95064.66;5025925;28;20029;-70
2021/11/21 08:47:58;;;;;;;6.68;4.55;;;;;;;25.54;36.48;95062.66;5024116;28;20075;-68
2021/11/21 08:50:24;;;;;;;7.65;4.78;;;;;;;25.58;37.13;95063.09;5024615;28;20499;-69
2021/11/21 08:52:49;;;;;;;7.10;4.47;;;;;;;25.65;36.78;95051.53;5025220;28;20044;-69
2021/11/21 08:55:15;;;;;;;7.78;5.05;;;;;;;25.73;36.69;95044.22;5024954;28;20663;-69
2021/11/21 08:57:41;;;;;;;6.72;4.50;;;;;;;25.68;38.83;95039.56;5023700;28;20412;-69
2021/11/21 09:00:08;;;;;;;8.43;4.35;;;;;;;25.71;36.25;95033.03;5024705;28;20052;-69
2021/11/21 09:02:34;;;;;;;7.65;4.63;;;;;;;25.68;35.70;95029.38;5022666;28;20195;-67
2021/11/21 09:04:59;;;;;;;7.22;4.40;;;;;;;25.60;35.47;95027.72;5024825;28;20022;-70
2021/11/21 09:07:24;;;;;;;6.00;4.28;;;;;;;25.66;35.42;95025.66;5025121;28;20017;-69
2021/11/21 09:09:51;;;;;;;6.93;5.35;;;;;;;25.67;34.99;95021.69;5024648;28;20033;-68
2021/11/21 09:12:17;;;;;;;7.85;5.10;;;;;;;25.63;35.18;95021.22;5024077;28;20029;-68
2021/11/21 09:14:42;;;;;;;7.45;4.75;;;;;;;25.58;35.23;95009.13;5025564;28;20060;-69
2021/11/21 09:17:08;;;;;;;6.38;4.85;;;;;;;25.61;35.04;95007.34;5026858;28;20369;-69
2021/11/21 09:19:33;;;;;;;6.00;4.32;;;;;;;25.55;35.10;95006.69;5027633;28;20041;-68
2021/11/21 09:21:59;;;;;;;6.38;4.85;;;;;;;25.59;35.09;95007.09;5030099;28;20032;-68
2021/11/21 09:24:25;;;;;;;7.00;4.15;;;;;;;25.61;35.22;95007.34;5035834;28;20030;-70
2021/11/21 09:26:50;;;;;;;6.55;4.80;;;;;;;25.61;34.87;94997.13;5027577;28;20045;-69
2021/11/21 09:29:16;;;;;;;6.80;5.05;;;;;;;25.64;34.58;95000.81;5025156;28;20057;-68
2021/11/21 09:31:41;;;;;;;7.55;4.95;;;;;;;25.62;34.97;94992.38;5024011;28;20032;-69
2021/11/21 09:34:07;;;;;;;7.60;4.88;;;;;;;25.64;34.83;94989.88;5024752;28;20033;-68
2021/11/21 09:36:33;;;;;;;6.38;4.93;;;;;;;25.71;34.81;94994.75;5024523;28;20642;-69
2021/11/21 09:38:58;;;;;;;6.95;4.72;;;;;;;25.67;34.75;94983.38;5024681;28;20067;-69
2021/11/21 09:41:24;;;;;;;6.78;4.65;;;;;;;25.67;34.84;94981.38;5022925;28;20021;-70
2021/11/21 09:43:49;;;;;;;29.80;8.07;;;;;;;25.75;34.82;94968.53;5038672;28;20090;-71
2021/11/21 09:46:15;;;;;;;14.20;5.88;;;;;;;25.81;34.72;94967.19;5042471;28;20447;-68
2021/11/21 09:48:41;;;;;;;11.13;6.40;;;;;;;25.79;35.13;94962.78;5042897;28;20106;-71
2021/11/21 09:51:06;;;;;;;11.18;5.65;;;;;;;25.84;34.75;94955.19;5044002;28;20071;-69
2021/11/21 09:53:33;;;;;;;11.98;5.50;;;;;;;25.92;34.85;94955.31;5042423;28;20029;-70
2021/11/21 09:55:58;;;;;;;8.55;5.65;;;;;;;25.94;34.93;94953.50;5043896;28;20544;-72
2021/11/21 09:58:24;;;;;;;8.20;5.63;;;;;;;26.00;34.88;94950.66;5025082;28;20024;-71
2021/11/21 10:00:49;;;;;;;9.23;5.53;;;;;;;25.97;34.83;94936.03;5022957;28;20021;-69
2021/11/21 10:03:15;;;;;;;9.80;5.63;;;;;;;25.99;34.99;94944.47;5022882;28;20049;-70
2021/11/21 10:05:46;;;;;;;9.88;5.45;;;;;;;26.00;35.04;94934.97;5022660;28;20033;-69
2021/11/21 10:08:16;;;;;;;8.57;5.50;;;;;;;26.06;35.02;94940.34;5024469;28;20144;-69
2021/11/21 10:10:51;;;;;;;9.07;5.72;;;;;;;26.09;34.93;94929.06;5024045;28;20496;-68
2021/11/21 10:13:25;;;;;;;7.93;5.60;;;;;;;26.14;35.14;94928.19;5023993;28;20030;-70
2021/11/21 10:15:51;;;;;;;9.50;5.47;;;;;;;26.16;34.75;94919.47;5024387;28;20021;-71
2021/11/21 10:18:17;;;;;;;6.70;4.93;;;;;;;26.21;35.03;94905.66;5022255;28;20095;-71
2021/11/21 10:20:42;;;;;;;7.97;5.53;;;;;;;26.18;34.98;94901.25;5039162;28;20039;-67
2021/11/21 10:23:08;;;;;;;9.32;5.32;;;;;;;26.21;35.07;94894.72;5022510;28;20033;-69
2021/11/21 10:25:37;;;;;;;8.25;5.32;;;;;;;26.16;34.98;94901.06;5026178;28;20030;-67
2021/11/21 10:28:02;;;;;;;7.18;5.40;;;;;;;26.15;35.08;94894.09;5032984;28;20491;-68
2021/11/21 10:30:29;;;;;;;9.15;6.05;;;;;;;26.22;35.02;94896.19;5041966;28;20036;-66
2021/11/21 10:32:54;;;;;;;9.20;5.70;;;;;;;26.17;35.16;94888.81;5038557;28;20028;-66
2021/11/21 10:35:22;;;;;;;11.52;5.32;;;;;;;26.14;35.14;94878.94;5036586;28;20017;-68
2021/11/21 10:37:47;;;;;;;8.10;5.40;;;;;;;26.17;35.04;94877.88;5024585;28;20037;-67
2021/11/21 10:40:18;;;;;;;11.52;5.93;;;;;;;26.17;34.74;94872.38;5037209;28;20534;-65
2021/11/21 10:42:45;;;;;;;9.25;5.60;;;;;;;26.14;35.09;94872.72;5022384;28;20037;-67
2021/11/21 10:45:13;;;;;;;7.85;5.00;;;;;;;26.15;34.95;94863.97;5025124;28;20033;-68
2021/11/21 10:47:45;;;;;;;8.75;5.50;;;;;;;26.17;35.03;94858.69;5039829;28;20036;-67
2021/11/21 10:50:14;;;;;;;8.93;5.28;;;;;;;26.18;35.10;94851.97;5045946;28;20044;-69
2021/11/21 10:52:46;;;;;;;9.23;5.30;;;;;;;26.23;35.04;94853.84;5044742;28;20471;-69
2021/11/21 10:55:15;;;;;;;9.80;5.78;;;;;;;26.24;34.94;94844.38;5028752;28;20671;-69
2021/11/21 10:57:41;;;;;;;8.88;5.18;;;;;;;26.20;35.06;94846.69;5026450;28;20108;-68
2021/11/21 11:00:17;;;;;;;8.57;6.05;;;;;;;26.22;35.11;94835.22;5026222;28;20025;-69
2021/11/21 11:02:43;;;;;;;8.50;5.60;;;;;;;26.26;34.79;94836.34;5022482;28;20582;-68
2021/11/21 11:05:13;;;;;;;9.57;5.70;;;;;;;26.27;34.96;94822.16;5026084;28;20024;-64
2021/11/21 11:07:47;;;;;;;;;;;;;;;26.34;34.92;94826.25;5024879;28;20416;-67
2021/11/21 11:10:16;;;;;;;7.80;5.88;;;;;;;26.27;34.96;94816.69;5025894;28;19967;-67
2021/11/21 11:12:45;;;;;;;6.65;5.22;;;;;;;26.34;34.93;94820.78;5026903;28;20107;-66
2021/11/21 11:15:11;;;;;;;8.95;5.65;;;;;;;26.33;34.79;94819.31;5026667;28;20344;-68
2021/11/21 11:17:37;;;;;;;7.63;5.32;;;;;;;26.32;34.81;94817.81;5026022;28;20036;-70
2021/11/21 11:20:04;;;;;;;10.23;6.10;;;;;;;26.36;34.64;94812.75;5026022;28;20256;-69
2021/11/21 11:22:30;;;;;;;9.75;5.55;;;;;;;26.28;34.94;94795.53;5025690;28;20408;-71
2021/11/21 11:24:57;;;;;;;7.95;5.22;;;;;;;26.33;35.03;94802.88;5025216;28;20032;-70
2021/11/21 11:27:34;;;;;;;11.80;5.38;;;;;;;26.34;35.03;94788.66;5025309;28;20363;-68
2021/11/21 11:30:00;;;;;;;7.40;5.55;;;;;;;26.34;34.41;94787.94;5009478;28;20040;-68